Time;durP1;ratioP1;P1;durP2;ratioP2;P2;SDS_P1;SDS_P2;PMS_P1;PMS_P2;Temp;Humidity;BMP_temperature;BMP_pressure;BME280_temperature;BME280_humidity;BME280_pressure;Samples;Min_cycle;Max_cycle;Signal;HPM_P1;HPM_P2
2023/09/04 00:03:03;;;;;;;2.22;1.50;;;;;;;13.22;100.00;152005.03;10505983;28;20044;-80
2023/09/04 00:08:05;;;;;;;1.63;1.52;;;;;;;13.21;100.00;152001.13;10507826;28;20048;-80
2023/09/04 00:13:07;;;;;;;2.22;1.30;;;;;;;13.25;100.00;152012.81;10509831;28;20060;-79
2023/09/04 00:18:09;;;;;;;2.20;1.55;;;;;;;13.04;100.00;151959.69;10511477;28;20062;-78
2023/09/04 00:23:11;;;;;;;2.40;1.35;;;;;;;13.09;100.00;151972.63;10511997;28;20513;-79
2023/09/04 00:28:13;;;;;;;2.03;1.50;;;;;;;12.94;100.00;151932.56;10514184;28;20044;-79
2023/09/04 00:33:15;;;;;;;2.95;1.70;;;;;;;13.09;100.00;151971.34;10512948;28;20441;-79
2023/09/04 00:38:17;;;;;;;1.67;1.30;;;;;;;13.00;100.00;151948.06;10511874;28;20053;-79
2023/09/04 00:43:18;;;;;;;2.22;1.52;;;;;;;12.96;100.00;151937.72;10510888;28;20139;-79
2023/09/04 00:48:20;;;;;;;2.05;1.20;;;;;;;13.20;100.00;151998.53;10517682;28;20041;-79
2023/09/04 00:53:23;;;;;;;1.88;1.48;;;;;;;12.84;100.00;151908.00;10519767;28;20049;-79
2023/09/04 00:58:26;;;;;;;1.38;1.27;;;;;;;12.83;100.00;151906.66;10518685;28;20376;-79
2023/09/04 01:03:29;;;;;;;1.55;1.30;;;;;;;12.93;100.00;151929.97;10519390;28;20040;-79
2023/09/04 01:08:34;;;;;;;1.77;1.30;;;;;;;12.69;100.00;151869.16;10520006;28;20116;-79
2023/09/04 01:13:50;;;;;;;1.70;1.50;;;;;;;12.81;100.00;151901.50;10519652;28;20048;-79
2023/09/04 01:18:52;;;;;;;1.63;1.50;;;;;;;12.45;100.00;151808.41;10519889;28;20070;-79
2023/09/04 01:23:54;;;;;;;2.72;1.50;;;;;;;12.48;100.00;151816.13;10516474;28;20049;-80
2023/09/04 01:29:33;;;;;;;2.42;1.50;;;;;;;12.67;100.00;151864.03;10513755;28;20045;-77
2023/09/04 01:34:41;;;;;;;2.95;1.50;;;;;;;12.69;100.00;151869.16;10517742;28;20506;-78
2023/09/04 01:39:46;;;;;;;1.40;1.30;;;;;;;12.77;100.00;151891.16;10518060;28;20064;-78
2023/09/04 01:44:47;;;;;;;1.88;1.60;;;;;;;12.43;100.00;151803.22;10514918;28;20048;-79
2023/09/04 01:49:49;;;;;;;3.40;1.77;;;;;;;12.57;100.00;151840.75;10514759;28;20040;-79
2023/09/04 01:54:51;;;;;;;1.65;1.55;;;;;;;12.52;100.00;151826.47;10511033;28;20051;-78
2023/09/04 01:59:53;;;;;;;1.73;1.50;;;;;;;12.43;100.00;151803.22;10492481;28;20444;-77
2023/09/04 02:04:55;;;;;;;2.60;1.73;;;;;;;12.03;100.00;151703.66;10506633;28;20131;-77
2023/09/04 02:09:57;;;;;;;2.28;1.95;;;;;;;11.85;100.00;151657.13;10507874;28;20040;-77
2023/09/04 02:14:58;;;;;;;2.70;1.80;;;;;;;11.80;100.00;151645.47;10507368;28;20403;-77
2023/09/04 02:20:00;;;;;;;2.00;1.85;;;;;;;11.81;100.00;151646.75;10507522;28;20060;-78
2023/09/04 02:25:03;;;;;;;2.20;2.00;;;;;;;11.85;100.00;151658.44;10506902;28;20529;-78
2023/09/04 02:30:07;;;;;;;3.35;1.80;;;;;;;12.15;100.00;151732.13;10491956;28;20117;-78
2023/09/04 02:35:09;;;;;;;2.53;2.10;;;;;;;12.20;100.00;151746.34;10514128;28;20490;-78
2023/09/04 02:40:12;;;;;;;2.38;1.70;;;;;;;12.30;100.00;151770.88;10514641;28;20040;-78
2023/09/04 02:45:14;;;;;;;2.45;2.22;;;;;;;12.18;100.00;151741.19;10512052;28;20106;-77
2023/09/04 02:50:17;;;;;;;2.08;1.83;;;;;;;12.22;100.00;151750.19;10513696;28;20037;-78
2023/09/04 02:55:19;;;;;;;2.65;2.28;;;;;;;11.96;100.00;151685.59;10514100;28;20040;-78
2023/09/04 03:00:21;;;;;;;2.70;2.10;;;;;;;11.99;100.00;151692.03;10513633;28;20100;-77
2023/09/04 03:05:25;;;;;;;3.00;2.10;;;;;;;11.69;100.00;151615.78;10506952;28;20479;-77
2023/09/04 03:10:27;;;;;;;2.38;2.17;;;;;;;11.56;100.00;151583.47;10504976;28;20044;-77
2023/09/04 03:15:29;;;;;;;3.97;2.35;;;;;;;11.88;100.00;151663.63;10506796;28;20047;-76
2023/09/04 03:20:31;;;;;;;2.28;2.08;;;;;;;11.73;100.00;151626.06;10506988;28;20044;-79
2023/09/04 03:25:35;;;;;;;3.75;2.83;;;;;;;11.88;100.00;151664.91;10504786;28;20040;-78
2023/09/04 03:30:38;;;;;;;5.60;2.50;;;;;;;11.81;100.00;151646.75;10513009;28;20072;-78
2023/09/04 03:35:41;;;;;;;2.85;2.55;;;;;;;11.72;100.00;151623.50;10510994;28;20045;-79
2023/09/04 03:40:42;;;;;;;3.25;2.83;;;;;;;11.63;100.00;151602.81;10501855;28;20424;-77
2023/09/04 03:45:44;;;;;;;2.40;2.20;;;;;;;11.88;100.00;151663.63;10488238;28;20040;-78
2023/09/04 03:50:46;;;;;;;3.53;2.78;;;;;;;11.79;100.00;151641.59;10505175;28;20495;-79
2023/09/04 03:55:48;;;;;;;3.28;2.70;;;;;;;11.42;100.00;151548.59;10507194;28;20044;-78
2023/09/04 04:00:59;;;;;;;2.58;2.38;;;;;;;11.30;100.00;151517.56;10508832;28;20045;-78
2023/09/04 04:06:13;;;;;;;2.50;2.30;;;;;;;11.22;100.00;151498.16;10484284;28;20052;-72
2023/09/04 04:11:15;;;;;;;3.30;3.00;;;;;;;11.27;100.00;151511.09;10498233;28;20044;-72
2023/09/04 04:16:17;;;;;;;3.85;3.45;;;;;;;11.47;100.00;151560.22;10499281;28;20040;-73
2023/09/04 04:21:19;;;;;;;5.05;3.05;;;;;;;11.58;100.00;151588.59;10503251;28;20070;-71
2023/09/04 04:26:20;;;;;;;8.02;3.28;;;;;;;11.44;100.00;151553.72;10506849;28;20036;-71
2023/09/04 04:31:22;;;;;;;3.08;2.78;;;;;;;11.35;100.00;151530.47;10504494;28;20086;-72
2023/09/04 04:36:24;;;;;;;4.60;3.78;;;;;;;11.67;100.00;151610.56;10505157;28;20498;-73
2023/09/04 04:41:26;;;;;;;3.35;3.15;;;;;;;11.55;100.00;151580.84;10506285;28;20506;-72
2023/09/04 04:46:29;;;;;;;5.88;4.03;;;;;;;11.67;100.00;151610.56;10504589;28;20144;-72
2023/09/04 04:51:32;;;;;;;3.65;3.35;;;;;;;11.60;100.00;151595.09;10504370;28;20040;-72
2023/09/04 04:56:34;;;;;;;3.90;3.50;;;;;;;11.60;100.00;151595.09;10504597;28;20049;-72
2023/09/04 05:01:36;;;;;;;4.03;3.45;;;;;;;11.40;100.00;151543.38;10504214;28;20100;-72
2023/09/04 05:06:38;;;;;;;3.58;3.28;;;;;;;11.39;100.00;151540.81;10503770;28;20044;-72
2023/09/04 05:11:41;;;;;;;4.10;3.25;;;;;;;11.44;100.00;151553.72;10503160;28;20071;-71
2023/09/04 05:16:43;;;;;;;3.70;3.40;;;;;;;11.53;100.00;151575.69;10502375;28;20048;-71
2023/09/04 05:21:45;;;;;;;3.75;3.45;;;;;;;11.73;100.00;151626.06;10502108;28;20068;-72
2023/09/04 05:26:57;;;;;;;4.03;3.72;;;;;;;11.81;100.00;151646.75;10502298;28;20082;-72
2023/09/04 05:31:59;;;;;;;3.20;2.90;;;;;;;11.78;100.00;151639.03;10501905;28;20045;-72
2023/09/04 05:37:01;;;;;;;4.22;3.22;;;;;;;11.90;100.00;151670.06;10503778;28;20120;-72
2023/09/04 05:42:03;;;;;;;2.92;2.50;;;;;;;12.00;100.00;151694.66;10501939;28;20048;-72
2023/09/04 05:47:05;;;;;;;3.63;2.25;;;;;;;12.26;100.00;151761.88;10503105;28;20036;-72
2023/09/04 05:52:06;;;;;;;3.40;2.55;;;;;;;12.42;100.00;151800.63;10502711;28;20079;-72
2023/09/04 05:57:08;;;;;;;3.42;2.33;;;;;;;12.56;100.00;151838.13;10504295;28;20388;-72
2023/09/04 06:02:10;;;;;;;2.53;2.15;;;;;;;13.06;100.00;151964.91;10502730;28;20549;-72
2023/09/04 06:07:13;;;;;;;3.03;2.38;;;;;;;13.56;100.00;152091.72;10502569;28;20414;-73
2023/09/04 06:12:15;;;;;;;3.70;2.10;;;;;;;13.94;99.63;152187.47;10501911;28;20127;-73
2023/09/04 06:17:17;;;;;;;5.60;2.45;;;;;;;14.03;96.90;152209.47;10501933;28;20044;-72
2023/09/04 06:22:19;;;;;;;2.60;2.00;;;;;;;14.42;94.27;152309.19;10501234;28;20045;-72
2023/09/04 06:27:21;;;;;;;3.15;2.00;;;;;;;14.49;92.31;152326.09;10502715;28;20037;-72
2023/09/04 06:32:22;;;;;;;3.13;2.00;;;;;;;14.54;92.55;152340.31;10501820;28;20087;-73
2023/09/04 06:37:25;;;;;;;3.65;2.40;;;;;;;14.78;93.01;152401.16;10500667;28;20471;-72
2023/09/04 06:42:26;;;;;;;2.75;1.92;;;;;;;15.24;87.25;152517.78;10499984;28;20041;-73
2023/09/04 06:47:28;;;;;;;3.25;1.80;;;;;;;15.06;89.72;152471.16;10500259;28;20044;-72
2023/09/04 06:52:30;;;;;;;2.92;2.60;;;;;;;15.11;90.15;152485.38;10500584;28;20078;-72
2023/09/04 06:57:32;;;;;;;3.42;2.28;;;;;;;15.21;88.88;152508.69;10500590;28;20384;-72
2023/09/04 07:02:33;;;;;;;3.03;2.30;;;;;;;15.31;87.59;152535.88;10499127;28;20060;-72
2023/09/04 07:07:37;;;;;;;5.13;2.35;;;;;;;15.35;88.12;152544.97;10499489;28;20059;-72
2023/09/04 07:12:40;;;;;;;2.50;2.00;;;;;;;15.80;85.34;152659.03;10500583;28;20076;-72
2023/09/04 07:17:42;;;;;;;7.72;2.00;;;;;;;15.80;85.27;152659.03;10499806;28;20074;-72
2023/09/04 07:22:43;;;;;;;2.72;1.75;;;;;;;16.07;85.92;152729.09;10500154;28;20448;-71
2023/09/04 07:27:45;;;;;;;4.70;1.70;;;;;;;16.43;84.22;152818.53;10499812;28;20047;-71
2023/09/04 07:32:47;;;;;;;4.53;1.95;;;;;;;16.97;80.07;152956.06;10499340;28;20048;-71
2023/09/04 07:37:49;;;;;;;6.22;2.28;;;;;;;17.14;76.72;153000.16;10499542;28;20044;-72
2023/09/04 07:42:51;;;;;;;4.07;1.60;;;;;;;16.95;79.29;152952.13;10500254;28;20094;-72
2023/09/04 07:47:52;;;;;;;4.28;1.75;;;;;;;17.35;75.45;153053.31;10501026;28;20107;-71
2023/09/04 07:52:55;;;;;;;3.08;1.45;;;;;;;17.46;76.37;153081.91;10500429;28;20512;-72
2023/09/04 07:57:57;;;;;;;1.80;1.40;;;;;;;17.53;74.38;153100.09;10500520;28;20046;-73
2023/09/04 08:02:59;;;;;;;2.00;1.50;;;;;;;17.83;74.04;153175.38;10501138;28;20544;-73
2023/09/04 08:08:02;;;;;;;6.40;1.98;;;;;;;18.05;70.92;153231.19;10499090;28;20037;-72
2023/09/04 08:13:03;;;;;;;3.05;1.45;;;;;;;18.05;71.94;153231.19;10499127;28;20052;-72
2023/09/04 08:18:06;;;;;;;2.00;1.00;;;;;;;18.08;71.73;153240.28;10500473;28;20457;-72
2023/09/04 08:23:09;;;;;;;1.77;1.20;;;;;;;18.54;69.35;153357.13;10500710;28;20119;-72
2023/09/04 08:28:11;;;;;;;2.58;1.23;;;;;;;19.04;64.59;153483.19;10500034;28;20045;-72
2023/09/04 08:33:13;;;;;;;1.33;0.88;;;;;;;19.06;64.28;153488.38;10499910;28;20052;-73
2023/09/04 08:38:14;;;;;;;2.00;1.08;;;;;;;18.99;63.71;153470.16;10497857;28;20094;-72
2023/09/04 08:43:17;;;;;;;1.08;0.90;;;;;;;19.28;62.38;153545.53;10497630;28;20094;-72
2023/09/04 08:48:21;;;;;;;0.80;0.70;;;;;;;19.21;63.63;153526.03;10497776;28;20040;-72
2023/09/04 08:53:23;;;;;;;1.52;1.08;;;;;;;19.20;63.71;153524.72;10497589;28;20529;-72
2023/09/04 08:58:25;;;;;;;1.83;1.10;;;;;;;19.65;61.94;153639.13;10498067;28;20086;-72
2023/09/04 09:03:27;;;;;;;1.00;0.90;;;;;;;19.61;60.89;153630.06;10497543;28;20120;-72
2023/09/04 09:08:32;;;;;;;1.75;0.90;;;;;;;19.74;59.50;153661.22;10502601;28;20405;-72
2023/09/04 09:13:34;;;;;;;1.60;0.70;;;;;;;20.22;58.21;153783.41;10503986;28;20059;-73
2023/09/04 09:18:42;;;;;;;1.70;0.90;;;;;;;20.24;57.84;153788.63;10503919;28;20048;-72
2023/09/04 09:23:44;;;;;;;0.80;0.75;;;;;;;20.13;58.99;153762.59;10504767;28;20538;-72
2023/09/04 09:28:46;;;;;;;1.88;0.70;;;;;;;20.41;57.98;153832.84;10505390;28;20076;-73
2023/09/04 09:33:48;;;;;;;1.38;0.70;;;;;;;20.91;56.58;153960.31;10503636;28;20052;-72
2023/09/04 09:38:50;;;;;;;1.20;0.80;;;;;;;21.04;53.65;153994.13;10505016;28;20041;-72
2023/09/04 09:43:51;;;;;;;0.90;0.75;;;;;;;21.93;53.38;154220.56;10503382;28;20052;-72
2023/09/04 09:48:54;;;;;;;0.88;0.80;;;;;;;22.52;52.28;154371.59;10504765;28;20612;-72
2023/09/04 09:53:57;;;;;;;1.90;1.00;;;;;;;23.19;49.51;154540.94;10504300;28;20041;-73
2023/09/04 09:58:59;;;;;;;0.90;0.60;;;;;;;23.67;49.54;154666.03;10503043;28;20060;-72
2023/09/04 10:04:00;;;;;;;0.70;0.70;;;;;;;24.10;46.50;154775.50;10503560;28;20041;-72
2023/09/04 10:09:07;;;;;;;2.30;0.90;;;;;;;24.28;44.55;154819.81;10503896;28;20040;-73
2023/09/04 10:14:18;;;;;;;1.35;0.82;;;;;;;24.94;47.30;154989.34;10503144;28;20039;-73
2023/09/04 10:19:24;;;;;;;1.13;0.93;;;;;;;24.91;43.75;154981.50;10503660;28;20115;-73
2023/09/04 10:24:55;;;;;;;2.17;0.88;;;;;;;24.95;46.93;154991.94;10501265;28;20517;-72
2023/09/04 10:30:04;;;;;;;1.58;0.90;;;;;;;24.67;45.18;154921.56;10502187;28;20041;-72
2023/09/04 10:35:08;;;;;;;1.75;0.95;;;;;;;24.79;44.41;154951.56;10501534;28;20039;-73
2023/09/04 10:40:10;;;;;;;0.98;0.77;;;;;;;25.19;43.16;155053.31;10501348;28;20044;-73
2023/09/04 10:45:16;;;;;;;1.67;0.77;;;;;;;25.41;45.78;155109.34;10502228;28;20124;-72
2023/09/04 10:50:38;;;;;;;0.80;0.80;;;;;;;25.24;43.94;155065.06;10501866;28;20043;-72
2023/09/04 10:55:39;;;;;;;2.15;1.00;;;;;;;25.77;42.76;155200.75;10499703;28;20041;-72
2023/09/04 11:00:41;;;;;;;1.35;0.90;;;;;;;25.46;42.58;155122.44;10501117;28;20051;-73
2023/09/04 11:06:01;;;;;;;1.38;0.90;;;;;;;25.89;42.54;155232.03;10500394;28;20064;-72
2023/09/04 11:11:05;;;;;;;1.17;1.00;;;;;;;25.44;42.41;155117.19;10498989;28;20055;-72
2023/09/04 11:16:07;;;;;;;1.40;0.90;;;;;;;25.84;44.73;155220.28;10501090;28;20194;-72
2023/09/04 11:21:10;;;;;;;0.85;0.70;;;;;;;25.62;43.64;155164.16;10500955;28;20044;-71
2023/09/04 11:26:12;;;;;;;1.55;0.95;;;;;;;25.55;41.72;155145.91;10501333;28;20040;-72
2023/09/04 11:31:15;;;;;;;1.08;0.80;;;;;;;25.97;41.40;155251.63;10500875;28;20045;-72
2023/09/04 11:36:16;;;;;;;1.00;0.80;;;;;;;26.14;43.66;155297.28;10500086;28;20040;-71
2023/09/04 11:41:19;;;;;;;2.22;1.27;;;;;;;26.36;42.38;155353.41;10500375;28;20075;-72
2023/09/04 11:46:21;;;;;;;0.90;0.70;;;;;;;26.26;42.47;155326.00;10500691;28;20096;-72
2023/09/04 11:51:23;;;;;;;0.90;0.80;;;;;;;25.87;43.28;155228.13;10499901;28;20049;-72
2023/09/04 11:56:25;;;;;;;1.10;1.00;;;;;;;25.73;43.26;155191.56;10499770;28;20101;-72
2023/09/04 12:01:26;;;;;;;1.55;0.90;;;;;;;25.69;44.06;155179.81;10498955;28;20123;-72
2023/09/04 12:06:28;;;;;;;1.00;0.90;;;;;;;26.08;43.89;155281.63;10499662;28;20036;-72
2023/09/04 12:11:30;;;;;;;1.90;0.82;;;;;;;25.90;44.77;155235.97;10500222;28;20075;-72
2023/09/04 12:16:32;;;;;;;1.88;0.70;;;;;;;25.37;43.16;155098.97;10498238;28;20566;-72
2023/09/04 12:21:34;;;;;;;1.90;0.73;;;;;;;25.57;44.51;155151.09;10497729;28;20047;-72
2023/09/04 12:26:35;;;;;;;1.10;0.95;;;;;;;25.46;43.91;155121.13;10498628;28;20036;-72
2023/09/04 12:31:37;;;;;;;1.13;0.85;;;;;;;24.98;42.87;154998.50;10498168;28;20409;-72
2023/09/04 12:36:39;;;;;;;1.40;0.90;;;;;;;24.56;45.00;154892.84;10498674;28;20441;-72
2023/09/04 12:41:41;;;;;;;1.00;0.80;;;;;;;24.32;45.52;154830.25;10501924;28;20036;-72
2023/09/04 12:46:43;;;;;;;1.27;0.80;;;;;;;24.72;43.66;154932.00;10506962;28;20032;-72
2023/09/04 12:51:45;;;;;;;1.75;0.80;;;;;;;24.33;43.96;154834.16;10505621;28;20136;-72
2023/09/04 12:56:46;;;;;;;1.08;0.80;;;;;;;24.26;45.50;154814.59;10505485;28;20091;-72
2023/09/04 13:01:48;;;;;;;1.75;1.00;;;;;;;24.30;44.07;154826.31;10507043;28;20051;-72
2023/09/04 13:06:50;;;;;;;1.98;0.95;;;;;;;24.24;43.96;154809.41;10503897;28;20045;-72
2023/09/04 13:11:56;;;;;;;0.80;0.80;;;;;;;24.34;45.17;154835.44;10505542;28;20429;-72
2023/09/04 13:16:58;;;;;;;2.38;0.90;;;;;;;24.41;45.56;154853.78;10505734;28;20087;-72
2023/09/04 13:21:59;;;;;;;0.80;0.80;;;;;;;24.18;44.99;154795.06;10504765;28;20045;-72
2023/09/04 13:27:01;;;;;;;0.93;0.80;;;;;;;24.08;46.34;154770.31;10512512;28;20033;-78
2023/09/04 13:32:03;;;;;;;2.47;0.90;;;;;;;23.66;46.30;154663.44;10521126;28;20093;-80
2023/09/04 13:37:07;;;;;;;1.20;0.90;;;;;;;23.75;46.05;154685.59;10517573;28;20107;-78
2023/09/04 13:42:08;;;;;;;3.67;0.93;;;;;;;23.70;46.34;154671.28;10521290;28;20070;-78
2023/09/04 13:47:10;;;;;;;1.88;1.10;;;;;;;23.62;47.21;154652.97;10521736;28;20072;-79
2023/09/04 13:52:14;;;;;;;1.10;0.98;;;;;;;23.52;47.10;154626.94;10506596;28;20406;-72
2023/09/04 13:57:16;;;;;;;1.17;0.70;;;;;;;23.55;47.57;154633.41;10504125;28;20044;-72
2023/09/04 14:02:17;;;;;;;1.88;0.70;;;;;;;23.56;45.58;154637.34;10503534;28;20055;-71
2023/09/04 14:07:19;;;;;;;2.15;0.80;;;;;;;23.51;47.73;154623.03;10503088;28;20040;-72
2023/09/04 14:12:21;;;;;;;0.95;0.77;;;;;;;23.61;47.91;154649.06;10503323;28;20037;-72
2023/09/04 14:17:23;;;;;;;1.02;0.77;;;;;;;23.42;48.09;154600.88;10502226;28;20106;-72
2023/09/04 14:22:25;;;;;;;1.15;0.80;;;;;;;23.34;48.01;154581.34;10502694;28;20041;-72
2023/09/04 14:27:31;;;;;;;1.10;0.70;;;;;;;23.36;48.03;154585.22;10503428;28;20106;-72
2023/09/04 14:32:34;;;;;;;1.25;0.60;;;;;;;23.45;49.71;154608.66;10502517;28;20072;-72
2023/09/04 14:37:37;;;;;;;0.75;0.70;;;;;;;23.47;47.36;154613.91;10502036;28;20037;-74
2023/09/04 14:42:39;;;;;;;2.08;1.13;;;;;;;23.56;49.26;154636.06;10501866;28;20411;-73
2023/09/04 14:47:41;;;;;;;0.90;0.50;;;;;;;23.40;48.87;154595.66;10501727;28;20036;-71
2023/09/04 14:52:43;;;;;;;0.73;0.70;;;;;;;23.32;48.10;154574.81;10503116;28;20371;-71
2023/09/04 14:57:45;;;;;;;2.42;0.60;;;;;;;23.38;48.69;154591.75;10501854;28;20063;-73
2023/09/04 15:02:47;;;;;;;1.23;0.73;;;;;;;23.36;48.62;154586.53;10501088;28;20140;-74
2023/09/04 15:07:49;;;;;;;0.82;0.70;;;;;;;23.56;47.39;154636.06;10501277;28;20071;-73
2023/09/04 15:12:51;;;;;;;0.70;0.60;;;;;;;23.37;48.69;154589.16;10506732;28;20044;-74
2023/09/04 15:17:53;;;;;;;1.15;0.75;;;;;;;23.49;46.92;154617.78;10500606;28;20178;-76
2023/09/04 15:22:55;;;;;;;0.93;0.73;;;;;;;23.48;47.85;154616.50;10499267;28;20514;-74
2023/09/04 15:27:57;;;;;;;1.05;0.60;;;;;;;23.29;48.21;154567.00;10499908;28;20119;-74
2023/09/04 15:32:58;;;;;;;0.65;0.63;;;;;;;23.39;48.37;154594.34;10500306;28;20133;-74
2023/09/04 15:38:00;;;;;;;2.25;0.70;;;;;;;23.27;48.26;154561.78;10499434;28;20043;-74
2023/09/04 15:43:03;;;;;;;1.30;0.60;;;;;;;23.13;48.35;154526.63;10500310;28;20165;-73
2023/09/04 15:48:05;;;;;;;0.70;0.60;;;;;;;23.08;49.99;154514.91;10500091;28;20040;-73
2023/09/04 15:53:06;;;;;;;1.10;0.70;;;;;;;23.11;49.72;154521.44;10499968;28;20037;-73
2023/09/04 15:58:08;;;;;;;2.00;0.80;;;;;;;23.29;48.44;154568.31;10499458;28;20047;-73
2023/09/04 16:03:10;;;;;;;2.63;0.85;;;;;;;22.96;50.30;154483.63;10499045;28;20044;-74
2023/09/04 16:08:16;;;;;;;1.20;0.90;;;;;;;22.77;51.15;154434.13;10498520;28;20036;-74
2023/09/04 16:13:22;;;;;;;1.42;0.70;;;;;;;22.82;50.45;154447.13;10497376;28;20040;-73
2023/09/04 16:18:24;;;;;;;0.70;0.68;;;;;;;22.87;50.84;154460.13;10507679;28;20075;-73
2023/09/04 16:23:28;;;;;;;0.98;0.90;;;;;;;22.82;51.03;154447.13;10507930;28;20098;-73
2023/09/04 16:28:29;;;;;;;2.88;0.70;;;;;;;22.94;50.74;154478.44;10506795;28;20037;-73
2023/09/04 16:33:31;;;;;;;0.65;0.60;;;;;;;22.74;51.78;154427.59;10506640;28;20133;-73
2023/09/04 16:38:33;;;;;;;0.75;0.73;;;;;;;22.70;52.52;154415.88;10506460;28;20094;-73
2023/09/04 16:43:36;;;;;;;1.17;0.68;;;;;;;22.72;53.24;154421.09;10505425;28;20124;-73
2023/09/04 16:48:38;;;;;;;1.50;0.98;;;;;;;22.46;53.95;154356.00;10505950;28;20044;-73
2023/09/04 16:53:40;;;;;;;1.13;0.73;;;;;;;22.64;53.85;154402.84;10505637;28;20045;-74
2023/09/04 16:58:42;;;;;;;1.00;0.80;;;;;;;22.37;54.52;154332.56;10503521;28;20064;-74
2023/09/04 17:03:44;;;;;;;1.45;0.95;;;;;;;22.34;55.14;154324.72;10504357;28;20059;-74
2023/09/04 17:08:45;;;;;;;1.27;0.80;;;;;;;22.21;55.70;154292.19;10504055;28;20041;-74
2023/09/04 17:13:47;;;;;;;1.20;0.80;;;;;;;22.14;55.61;154274.00;10504167;28;20048;-74
2023/09/04 17:18:49;;;;;;;1.08;0.98;;;;;;;21.88;57.10;154207.56;10505478;28;20047;-73
2023/09/04 17:23:51;;;;;;;1.27;0.90;;;;;;;21.99;56.26;154236.16;10504108;28;20048;-73
2023/09/04 17:28:53;;;;;;;1.67;0.90;;;;;;;21.70;57.68;154160.72;10503120;28;20036;-73
2023/09/04 17:33:57;;;;;;;1.40;0.98;;;;;;;21.75;57.41;154173.72;10505199;28;20048;-73
2023/09/04 17:38:58;;;;;;;1.45;1.10;;;;;;;21.63;58.09;154145.06;10503448;28;20402;-73
2023/09/04 17:44:00;;;;;;;0.82;0.80;;;;;;;21.49;58.93;154108.66;10503236;28;20048;-73
2023/09/04 17:49:02;;;;;;;1.10;1.00;;;;;;;21.35;59.09;154073.53;10503127;28;20051;-73
2023/09/04 17:54:04;;;;;;;2.63;1.65;;;;;;;21.32;59.44;154064.41;10503303;28;20115;-73
2023/09/04 17:59:05;;;;;;;3.72;1.30;;;;;;;21.12;60.35;154014.94;10502341;28;20558;-73
2023/09/04 18:04:07;;;;;;;1.20;1.00;;;;;;;20.90;61.54;153957.72;10502030;28;20051;-73
2023/09/04 18:09:09;;;;;;;1.65;1.20;;;;;;;20.92;61.63;153964.19;10502479;28;20083;-73
2023/09/04 18:14:11;;;;;;;3.28;1.20;;;;;;;20.79;62.51;153930.38;10501583;28;20044;-72
2023/09/04 18:19:13;;;;;;;1.27;1.10;;;;;;;20.75;62.69;153919.97;10503221;28;20048;-74
2023/09/04 18:24:15;;;;;;;1.88;1.17;;;;;;;20.49;63.93;153853.66;10504002;28;20048;-73
2023/09/04 18:29:16;;;;;;;1.35;1.05;;;;;;;20.42;65.73;153836.72;10504532;28;20070;-74
2023/09/04 18:34:18;;;;;;;1.52;1.02;;;;;;;20.19;69.15;153776.94;10503945;28;20461;-74
2023/09/04 18:39:21;;;;;;;2.72;1.50;;;;;;;20.17;70.88;153773.00;10504311;28;20058;-74
2023/09/04 18:44:23;;;;;;;2.70;1.63;;;;;;;19.90;72.99;153704.09;10502989;28;20123;-73
2023/09/04 18:49:25;;;;;;;2.13;1.75;;;;;;;19.72;73.73;153657.31;10502897;28;20070;-75
2023/09/04 18:54:27;;;;;;;2.42;1.70;;;;;;;19.55;75.34;153614.38;10504037;28;20036;-76
2023/09/04 18:59:31;;;;;;;1.50;1.40;;;;;;;19.61;76.09;153630.06;10502674;28;20047;-74
2023/09/04 19:04:33;;;;;;;2.75;1.60;;;;;;;19.34;77.08;153559.81;10503493;28;20040;-76
2023/09/04 19:09:36;;;;;;;1.85;1.42;;;;;;;19.13;78.13;153507.88;10502020;28;20414;-74
2023/09/04 19:14:37;;;;;;;1.50;1.23;;;;;;;18.98;78.98;153467.56;10502736;28;20127;-74
2023/09/04 19:19:39;;;;;;;4.70;1.70;;;;;;;19.20;79.62;153523.44;10501789;28;20111;-74
2023/09/04 19:24:45;;;;;;;2.22;1.83;;;;;;;19.00;80.44;153474.09;10501360;28;20076;-79
2023/09/04 19:29:47;;;;;;;2.63;1.85;;;;;;;18.71;82.21;153400.03;10508122;28;20052;-78
2023/09/04 19:34:49;;;;;;;2.67;2.03;;;;;;;18.62;83.55;153377.91;10508371;28;20075;-79
2023/09/04 19:39:51;;;;;;;2.17;1.83;;;;;;;18.43;83.84;153328.56;10509898;28;20036;-80
2023/09/04 19:45:07;;;;;;;3.00;1.95;;;;;;;18.25;84.09;153281.84;10515411;28;20545;-79
2023/09/04 19:50:09;;;;;;;3.00;2.33;;;;;;;18.11;84.23;153248.09;10511611;28;20040;-79
2023/09/04 19:55:11;;;;;;;3.42;2.10;;;;;;;18.35;86.61;153309.09;10511460;28;20049;-80
2023/09/04 20:00:15;;;;;;;2.45;2.17;;;;;;;18.33;87.25;153303.91;10514482;28;20127;-79
2023/09/04 20:05:17;;;;;;;2.70;1.85;;;;;;;18.14;88.01;153254.56;10507014;28;20049;-79
2023/09/04 20:10:20;;;;;;;4.22;2.47;;;;;;;18.07;88.89;153237.69;10504868;28;20056;-79
2023/09/04 20:15:21;;;;;;;2.20;2.00;;;;;;;18.09;90.05;153242.88;10504205;28;20449;-79
2023/09/04 20:20:23;;;;;;;5.22;2.47;;;;;;;18.01;90.61;153222.09;10505528;28;20139;-78
2023/09/04 20:25:25;;;;;;;2.28;2.08;;;;;;;17.84;92.04;153177.97;10508042;28;20049;-79
2023/09/04 20:30:27;;;;;;;4.18;2.50;;;;;;;17.81;92.22;153170.19;10504484;28;20116;-77
2023/09/04 20:35:29;;;;;;;2.50;2.30;;;;;;;17.79;92.00;153166.28;10509826;28;20127;-79
2023/09/04 20:40:31;;;;;;;3.55;2.83;;;;;;;17.74;92.25;153153.31;10507557;28;20032;-79
2023/09/04 20:45:33;;;;;;;2.95;2.65;;;;;;;17.54;93.53;153101.38;10516235;28;20045;-79
2023/09/04 20:50:35;;;;;;;2.47;2.22;;;;;;;17.22;95.22;153019.59;10512142;28;20057;-78
2023/09/04 20:55:38;;;;;;;3.20;2.33;;;;;;;17.27;95.98;153032.63;10505553;28;20052;-78
2023/09/04 21:00:42;;;;;;;2.90;2.63;;;;;;;17.10;96.41;152989.78;10504673;28;20094;-79
2023/09/04 21:05:44;;;;;;;2.83;2.17;;;;;;;17.07;96.75;152983.28;10508397;28;20545;-78
2023/09/04 23:24:05;;;;;;;2.53;2.00;;;;;;;16.29;100.00;152784.84;10505019;28;20083;-78
2023/09/04 23:29:11;;;;;;;2.42;2.22;;;;;;;16.23;100.00;152769.25;10507290;28;20048;-79
2023/09/04 23:34:16;;;;;;;3.35;2.10;;;;;;;16.13;100.00;152743.31;10512508;28;20053;-80
2023/09/04 23:49:43;;;;;;;2.55;2.10;;;;;;;15.73;100.00;152642.22;10511763;28;20509;-80
2023/09/04 23:54:44;;;;;;;2.60;2.35;;;;;;;15.85;100.00;152672.06;10514042;28;20041;-78
2023/09/04 23:59:46;;;;;;;3.95;2.80;;;;;;;15.53;100.00;152590.31;10515005;28;20041;-80
